createdAt,value
2016-10-18T00:00:37.755Z,0
2016-10-18T00:01:37.750Z,0
2016-10-18T00:02:37.804Z,0
2016-10-18T00:03:37.896Z,0
2016-10-18T00:04:37.975Z,0
2016-10-18T00:05:37.993Z,0
2016-10-18T00:06:38.554Z,0
2016-10-18T00:07:38.160Z,0
2016-10-18T00:08:38.183Z,0
2016-10-18T00:09:38.223Z,0
2016-10-18T00:10:38.272Z,0
2016-10-18T00:11:38.397Z,0
2016-10-18T00:12:38.352Z,0
2016-10-18T00:13:38.479Z,0
2016-10-18T00:14:38.453Z,0
2016-10-18T00:15:38.559Z,0
2016-10-18T00:16:38.639Z,0
2016-10-18T00:17:38.625Z,0
2016-10-18T00:18:38.745Z,0
2016-10-18T00:19:38.789Z,0
2016-10-18T00:20:38.907Z,0
2016-10-18T00:21:38.882Z,0
2016-10-18T00:22:38.902Z,0
2016-10-18T00:23:39.004Z,0
2016-10-18T00:24:39.025Z,0
2016-10-18T00:25:39.106Z,0
2016-10-18T00:26:39.197Z,0
2016-10-18T00:27:39.717Z,0
2016-10-18T00:28:39.259Z,0
2016-10-18T00:29:39.332Z,0
2016-10-18T00:30:39.403Z,0
2016-10-18T00:31:39.436Z,0
2016-10-18T00:32:39.466Z,0
2016-10-18T00:33:39.498Z,0
2016-10-18T00:34:39.635Z,0
2016-10-18T00:35:39.634Z,0
2016-10-18T00:36:39.715Z,0
2016-10-18T00:37:39.802Z,0
2016-10-18T00:38:39.800Z,0
2016-10-18T00:39:39.878Z,0
2016-10-18T00:40:39.894Z,0
2016-10-18T00:41:39.993Z,0
2016-10-18T00:42:40.043Z,0
2016-10-18T00:43:40.092Z,0
2016-10-18T00:44:40.149Z,0
2016-10-18T00:45:40.183Z,0
2016-10-18T00:46:40.247Z,0
2016-10-18T00:47:40.278Z,0
2016-10-18T00:48:40.341Z,0
2016-10-18T00:49:40.447Z,0
2016-10-18T00:50:40.450Z,0
2016-10-18T00:51:41.036Z,0
2016-10-18T00:52:40.562Z,0
2016-10-18T00:53:40.666Z,0
2016-10-18T00:54:40.763Z,0
2016-10-18T00:55:40.783Z,0
2016-10-18T00:56:40.793Z,0
2016-10-18T00:57:40.822Z,0
2016-10-18T00:58:40.925Z,0
2016-10-18T00:59:40.979Z,0
2016-10-18T01:00:41.007Z,0
2016-10-18T01:01:41.085Z,0
2016-10-18T01:02:41.132Z,0
2016-10-18T01:03:41.203Z,0
2016-10-18T01:04:41.364Z,0
2016-10-18T01:05:41.280Z,0
2016-10-18T01:06:41.374Z,0
2016-10-18T01:07:41.420Z,0
2016-10-18T01:08:41.458Z,0
2016-10-18T01:09:41.488Z,0
2016-10-18T01:10:42.073Z,0
2016-10-18T01:11:42.207Z,0
2016-10-18T01:12:41.687Z,0
2016-10-18T01:13:41.728Z,0
2016-10-18T01:14:41.823Z,0
2016-10-18T01:15:41.854Z,0
2016-10-18T01:16:41.905Z,0
2016-10-18T01:17:41.992Z,0
2016-10-18T01:18:42.004Z,0
2016-10-18T01:19:42.070Z,0
2016-10-18T01:20:42.139Z,0
2016-10-18T01:21:42.160Z,0
2016-10-18T01:22:42.225Z,0
2016-10-18T01:23:42.299Z,0
2016-10-18T01:24:42.316Z,0
2016-10-18T01:25:42.385Z,0
2016-10-18T01:26:42.406Z,0
2016-10-18T01:27:42.484Z,0
2016-10-18T01:28:42.516Z,0
2016-10-18T01:29:42.589Z,0
2016-10-18T01:30:42.672Z,0
2016-10-18T01:31:42.705Z,0
2016-10-18T01:32:42.802Z,0
2016-10-18T01:33:42.846Z,0
2016-10-18T01:34:43.455Z,0
2016-10-18T01:35:43.027Z,0
2016-10-18T01:36:42.979Z,0
2016-10-18T01:37:43.088Z,0
2016-10-18T01:38:43.111Z,0
2016-10-18T01:39:43.155Z,0
2016-10-18T01:40:43.212Z,0
2016-10-18T01:41:43.220Z,0
2016-10-18T01:42:43.350Z,0
2016-10-18T01:43:43.882Z,0
2016-10-18T01:44:43.387Z,0
2016-10-18T01:45:43.469Z,0
2016-10-18T01:46:43.557Z,0
2016-10-18T01:47:43.584Z,0
2016-10-18T01:48:43.745Z,0
2016-10-18T01:49:43.668Z,0
2016-10-18T01:50:44.236Z,0
2016-10-18T01:51:43.781Z,0
2016-10-18T01:52:43.820Z,0
2016-10-18T01:53:43.959Z,0
2016-10-18T01:54:44.504Z,0
2016-10-18T01:55:44.016Z,0
2016-10-18T01:56:44.075Z,0
2016-10-18T01:57:44.138Z,0
2016-10-18T01:58:44.139Z,0
2016-10-18T01:59:44.231Z,0
2016-10-18T02:00:44.301Z,0
2016-10-18T02:01:44.370Z,0
2016-10-18T02:02:44.353Z,0
2016-10-18T02:03:44.435Z,0
2016-10-18T02:04:44.584Z,0
2016-10-18T02:05:44.583Z,0
2016-10-18T02:06:44.608Z,0
2016-10-18T02:07:44.620Z,0
2016-10-18T02:08:44.739Z,0
2016-10-18T02:09:45.273Z,0
2016-10-18T02:10:44.787Z,0
2016-10-18T02:11:44.863Z,0
2016-10-18T02:12:44.931Z,0
2016-10-18T02:13:44.974Z,0
2016-10-18T02:14:45.009Z,0
2016-10-18T02:15:45.052Z,0
2016-10-18T02:16:45.157Z,0
2016-10-18T02:17:45.174Z,0
2016-10-18T02:18:45.216Z,0
2016-10-18T02:19:45.409Z,0
2016-10-18T02:20:45.387Z,0
2016-10-18T02:21:45.388Z,0
2016-10-18T02:22:45.475Z,0
2016-10-18T02:23:45.501Z,0
2016-10-18T02:24:45.549Z,0
2016-10-18T02:25:45.656Z,0
2016-10-18T02:26:45.680Z,0
2016-10-18T02:27:45.739Z,0
2016-10-18T02:28:45.767Z,0
2016-10-18T02:29:45.841Z,0
2016-10-18T02:30:45.842Z,0
2016-10-18T02:31:46.719Z,0
2016-10-18T02:32:46.000Z,0
2016-10-18T02:33:46.076Z,0
2016-10-18T02:34:46.101Z,0
2016-10-18T02:35:46.155Z,0
2016-10-18T02:36:46.258Z,0
2016-10-18T02:37:46.266Z,0
2016-10-18T02:38:46.335Z,0
2016-10-18T02:39:46.323Z,0
2016-10-18T02:40:46.441Z,0
2016-10-18T02:41:46.496Z,0
2016-10-18T02:42:46.564Z,0
2016-10-18T02:43:46.564Z,0
2016-10-18T02:44:46.589Z,0
2016-10-18T02:45:46.718Z,0
2016-10-18T02:46:46.755Z,0
2016-10-18T02:47:46.790Z,0
2016-10-18T02:48:46.863Z,0
2016-10-18T02:49:46.917Z,0
2016-10-18T02:50:46.941Z,0
2016-10-18T02:51:47.020Z,0
2016-10-18T02:52:47.053Z,0
2016-10-18T02:53:47.691Z,0
2016-10-18T02:54:47.183Z,0
2016-10-18T02:55:47.197Z,0
2016-10-18T02:56:47.307Z,0
2016-10-18T02:57:47.279Z,0
2016-10-18T02:58:47.413Z,0
2016-10-18T02:59:47.430Z,0
2016-10-18T03:00:47.463Z,0
2016-10-18T03:01:47.574Z,0
2016-10-18T03:02:47.662Z,0
2016-10-18T03:03:47.680Z,0
2016-10-18T03:04:47.745Z,0
2016-10-18T03:05:47.784Z,0
2016-10-18T03:06:47.772Z,0
2016-10-18T03:07:47.894Z,0
2016-10-18T03:08:47.953Z,0
2016-10-18T03:09:48.000Z,0
2016-10-18T03:10:48.011Z,0
2016-10-18T03:11:48.060Z,0
2016-10-18T03:12:48.102Z,0
2016-10-18T03:13:48.188Z,0
2016-10-18T03:14:48.231Z,0
2016-10-18T03:15:48.882Z,0
2016-10-18T03:16:48.352Z,0
2016-10-18T03:17:48.407Z,0
2016-10-18T03:18:48.981Z,0
2016-10-18T03:19:48.466Z,0
2016-10-18T03:20:48.539Z,0
2016-10-18T03:21:48.599Z,0
2016-10-18T03:22:48.697Z,0
2016-10-18T03:23:48.716Z,0
2016-10-18T03:24:48.747Z,0
2016-10-18T03:25:48.765Z,0
2016-10-18T03:26:48.898Z,0
2016-10-18T03:27:48.908Z,0
2016-10-18T03:28:49.021Z,0
2016-10-18T03:29:49.017Z,0
2016-10-18T03:30:49.132Z,0
2016-10-18T03:31:49.228Z,0
2016-10-18T03:32:49.144Z,0
2016-10-18T03:33:49.257Z,0
2016-10-18T03:34:49.282Z,0
2016-10-18T03:35:49.342Z,0
2016-10-18T03:36:49.450Z,0
2016-10-18T03:37:49.428Z,0
2016-10-18T03:38:49.535Z,0
2016-10-18T03:39:50.105Z,0
2016-10-18T03:40:49.735Z,0
2016-10-18T03:41:49.692Z,0
2016-10-18T03:42:50.225Z,0
2016-10-18T03:43:49.745Z,0
2016-10-18T03:44:50.298Z,0
2016-10-18T03:45:49.905Z,0
2016-10-18T03:46:49.932Z,0
2016-10-18T03:47:49.978Z,0
2016-10-18T03:48:50.061Z,0
2016-10-18T03:49:50.087Z,0
2016-10-18T03:50:50.137Z,0
2016-10-18T03:51:50.725Z,0
2016-10-18T03:52:50.230Z,0
2016-10-18T03:53:50.310Z,0
2016-10-18T03:54:50.333Z,0
2016-10-18T03:55:50.972Z,0
2016-10-18T03:56:50.467Z,0
2016-10-18T03:57:50.525Z,0
2016-10-18T03:58:50.568Z,0
2016-10-18T03:59:51.652Z,0
2016-10-18T04:00:50.725Z,0
2016-10-18T04:01:50.723Z,0
2016-10-18T04:02:50.749Z,0
2016-10-18T04:03:50.841Z,0
2016-10-18T04:04:50.915Z,0
2016-10-18T04:05:50.922Z,0
2016-10-18T04:06:51.507Z,0
2016-10-18T04:07:51.025Z,0
2016-10-18T04:08:51.137Z,0
2016-10-18T04:09:51.151Z,0
2016-10-18T04:10:51.723Z,0
2016-10-18T04:11:51.330Z,0
2016-10-18T04:12:51.295Z,0
2016-10-18T04:13:51.428Z,0
2016-10-18T04:14:51.463Z,0
2016-10-18T04:15:51.442Z,0
2016-10-18T04:16:51.542Z,0
2016-10-18T04:17:51.570Z,0
2016-10-18T04:18:51.672Z,0
2016-10-18T04:19:51.702Z,0
2016-10-18T04:20:51.707Z,0
2016-10-18T04:21:51.848Z,0
2016-10-18T04:22:51.853Z,0
2016-10-18T04:23:51.914Z,0
2016-10-18T04:24:51.956Z,0
2016-10-18T04:25:52.019Z,0
2016-10-18T04:26:52.040Z,0
2016-10-18T04:27:52.080Z,0
2016-10-18T04:28:52.138Z,0
2016-10-18T04:29:52.220Z,0
2016-10-18T04:30:52.265Z,0
2016-10-18T04:31:52.308Z,0
2016-10-18T04:32:52.340Z,0
2016-10-18T04:33:52.473Z,0
2016-10-18T04:34:52.510Z,0
2016-10-18T04:35:52.564Z,0
2016-10-18T04:36:52.647Z,0
2016-10-18T04:37:52.620Z,0
2016-10-18T04:38:52.695Z,0
2016-10-18T04:39:52.752Z,0
2016-10-18T04:40:53.293Z,0
2016-10-18T04:41:52.838Z,0
2016-10-18T04:42:52.841Z,0
2016-10-18T04:43:52.942Z,0
2016-10-18T04:44:53.032Z,0
2016-10-18T04:45:53.057Z,0
2016-10-18T04:46:53.089Z,0
2016-10-18T04:47:53.703Z,0
2016-10-18T04:48:53.185Z,0
2016-10-18T04:49:53.267Z,0
2016-10-18T04:50:53.901Z,0
2016-10-18T04:51:53.339Z,0
2016-10-18T04:52:53.426Z,0
2016-10-18T04:53:53.448Z,0
2016-10-18T04:54:53.556Z,0
2016-10-18T04:55:53.559Z,0
2016-10-18T04:56:53.702Z,0
2016-10-18T04:57:53.715Z,0
2016-10-18T04:58:53.750Z,0
2016-10-18T04:59:53.784Z,0
2016-10-18T05:00:53.903Z,0
2016-10-18T05:01:53.969Z,0
2016-10-18T05:02:53.966Z,0
2016-10-18T05:03:54.031Z,0
2016-10-18T05:04:54.110Z,0
2016-10-18T05:05:54.100Z,0
2016-10-18T05:06:54.157Z,0
2016-10-18T05:07:54.233Z,0
2016-10-18T05:08:54.313Z,0
2016-10-18T05:09:54.333Z,0
2016-10-18T05:10:54.376Z,0
2016-10-18T05:11:54.390Z,0
2016-10-18T05:12:55.092Z,0
2016-10-18T05:13:54.493Z,0
2016-10-18T05:14:54.589Z,0
2016-10-18T05:15:54.666Z,0
2016-10-18T05:16:54.711Z,0
2016-10-18T05:17:54.773Z,0
2016-10-18T05:18:54.807Z,0
2016-10-18T05:19:54.961Z,0
2016-10-18T05:20:54.895Z,0
2016-10-18T05:21:54.998Z,0
2016-10-18T05:22:54.986Z,0
2016-10-18T05:23:55.107Z,0
2016-10-18T05:24:55.680Z,0
2016-10-18T05:25:55.226Z,0
2016-10-18T05:26:55.219Z,0
2016-10-18T05:27:55.265Z,0
2016-10-18T05:28:55.400Z,0
2016-10-18T05:29:55.390Z,0
2016-10-18T05:30:55.516Z,0
2016-10-18T05:31:55.484Z,0
2016-10-18T05:32:55.524Z,0
2016-10-18T05:33:55.585Z,0
2016-10-18T05:34:55.626Z,0
2016-10-18T05:35:55.769Z,0
2016-10-18T05:36:55.714Z,0
2016-10-18T05:37:56.387Z,0
2016-10-18T05:38:55.896Z,0
2016-10-18T05:39:55.910Z,0
2016-10-18T05:40:56.023Z,0
2016-10-18T05:41:56.000Z,0
2016-10-18T05:42:56.058Z,0
2016-10-18T05:43:56.157Z,0
2016-10-18T05:44:56.171Z,0
2016-10-18T05:45:56.234Z,0
2016-10-18T05:46:56.337Z,0
2016-10-18T05:47:56.307Z,0
2016-10-18T05:48:56.394Z,0
2016-10-18T05:49:56.524Z,0
2016-10-18T05:50:56.468Z,0
2016-10-18T05:51:56.611Z,0
2016-10-18T05:52:56.579Z,0
2016-10-18T05:53:56.657Z,0
2016-10-18T05:54:56.720Z,0
2016-10-18T05:55:56.734Z,0
2016-10-18T05:56:56.879Z,0
2016-10-18T05:57:56.870Z,0
2016-10-18T05:58:57.420Z,0
2016-10-18T05:59:56.938Z,0
2016-10-18T06:00:57.087Z,0
2016-10-18T06:01:57.105Z,0
2016-10-18T06:02:57.138Z,0
2016-10-18T06:03:57.194Z,0
2016-10-18T06:04:57.253Z,0
2016-10-18T06:05:57.325Z,0
2016-10-18T06:06:57.920Z,0
2016-10-18T06:07:57.427Z,0
2016-10-18T06:08:57.431Z,0
2016-10-18T06:09:57.512Z,0
2016-10-18T06:10:57.567Z,0
2016-10-18T06:11:57.620Z,0
2016-10-18T06:12:57.679Z,0
2016-10-18T06:13:57.720Z,0
2016-10-18T06:14:57.764Z,0
2016-10-18T06:15:57.823Z,0
2016-10-18T06:16:57.915Z,0
2016-10-18T06:17:57.927Z,0
2016-10-18T06:18:58.025Z,0
2016-10-18T06:19:58.057Z,0
2016-10-18T06:20:58.122Z,0
2016-10-18T06:21:58.151Z,0
2016-10-18T06:22:58.208Z,0
2016-10-18T06:23:58.225Z,0
2016-10-18T06:24:58.885Z,0
2016-10-18T06:25:58.410Z,0
2016-10-18T06:26:58.416Z,0
2016-10-18T06:27:58.512Z,0
2016-10-18T06:28:58.522Z,0
2016-10-18T06:29:58.638Z,0
2016-10-18T06:30:58.680Z,0
2016-10-18T06:31:58.722Z,0
2016-10-18T06:32:58.764Z,0
2016-10-18T06:33:58.771Z,0
2016-10-18T06:34:59.471Z,0
2016-10-18T06:35:58.891Z,0
2016-10-18T06:36:58.961Z,0
2016-10-18T06:37:59.008Z,0
2016-10-18T06:38:59.119Z,0
2016-10-18T06:39:59.114Z,0
2016-10-18T06:40:59.178Z,0
2016-10-18T06:41:59.249Z,0
2016-10-18T06:42:59.434Z,0
2016-10-18T06:43:59.426Z,0
2016-10-18T06:45:00.002Z,0
2016-10-18T06:45:59.629Z,0
2016-10-18T06:47:00.256Z,0
2016-10-18T06:47:59.572Z,0
2016-10-18T06:48:59.569Z,0
2016-10-18T06:49:59.834Z,0
2016-10-18T06:50:59.724Z,0
2016-10-18T06:51:59.864Z,0
2016-10-18T06:52:59.871Z,0
2016-10-18T06:53:59.859Z,0
2016-10-18T06:54:59.906Z,0
2016-10-18T06:56:00.081Z,0
2016-10-18T06:57:00.024Z,0
2016-10-18T06:58:00.077Z,0
2016-10-18T06:59:00.131Z,0
2016-10-18T07:00:00.257Z,0
2016-10-18T07:01:00.279Z,0
2016-10-18T07:02:00.266Z,0
2016-10-18T07:03:00.441Z,0
2016-10-18T07:04:00.601Z,0
2016-10-18T07:05:00.438Z,0
2016-10-18T07:06:00.591Z,0
2016-10-18T07:07:00.534Z,0
2016-10-18T07:08:00.688Z,0
2016-10-18T07:09:00.796Z,0
2016-10-18T07:10:00.763Z,0
2016-10-18T07:11:00.875Z,0
2016-10-18T07:12:00.851Z,0
2016-10-18T07:13:00.982Z,0
2016-10-18T07:16:04.303Z,0
2016-10-18T07:16:46.874Z,0
2016-10-18T07:18:29.571Z,0
2016-10-18T07:19:29.654Z,0
2016-10-18T07:20:29.687Z,0
2016-10-18T07:21:29.799Z,0
2016-10-18T07:22:29.764Z,0
2016-10-18T07:23:29.809Z,0
2016-10-18T07:24:29.927Z,0
2016-10-18T07:25:29.936Z,0
2016-10-18T07:26:30.033Z,0
2016-10-18T07:27:30.064Z,0
2016-10-18T07:28:30.108Z,0
2016-10-18T07:29:30.143Z,0
2016-10-18T07:30:30.203Z,0
2016-10-18T07:31:30.386Z,0
2016-10-18T07:32:30.304Z,0
2016-10-18T07:33:30.365Z,0
2016-10-18T07:34:30.417Z,0
2016-10-18T07:35:30.476Z,0
2016-10-18T07:36:30.516Z,0
2016-10-18T07:37:30.556Z,0
2016-10-18T07:38:30.650Z,0
2016-10-18T07:39:30.702Z,0
2016-10-18T07:40:31.309Z,0
2016-10-18T07:41:30.812Z,0
2016-10-18T07:42:31.374Z,0
2016-10-18T07:43:30.885Z,0
2016-10-18T07:44:30.958Z,0
2016-10-18T07:45:31.061Z,0
2016-10-18T07:46:31.088Z,0
2016-10-18T07:47:31.173Z,0
2016-10-18T07:48:31.692Z,0
2016-10-18T07:49:31.288Z,0
2016-10-18T07:50:31.273Z,0
2016-10-18T07:51:31.355Z,0
2016-10-18T07:52:31.455Z,0
2016-10-18T07:53:31.487Z,0
2016-10-18T07:54:31.513Z,0
2016-10-18T07:55:31.559Z,0
2016-10-18T07:56:31.596Z,0
2016-10-18T07:57:31.624Z,0
2016-10-18T07:58:31.703Z,0
2016-10-18T07:59:31.790Z,0
2016-10-18T08:00:31.825Z,0
2016-10-18T08:01:31.883Z,0
2016-10-18T08:02:31.938Z,0
2016-10-18T08:03:32.014Z,0
2016-10-18T08:04:32.140Z,0
2016-10-18T08:05:32.107Z,0
2016-10-18T08:06:32.133Z,0
2016-10-18T08:07:32.303Z,4
2016-10-18T08:08:32.815Z,0
2016-10-18T08:09:32.838Z,4
2016-10-18T08:10:32.316Z,4
2016-10-18T08:11:32.409Z,4
2016-10-18T08:12:32.568Z,4
2016-10-18T08:13:32.492Z,8
2016-10-18T08:14:32.547Z,8
2016-10-18T08:15:32.602Z,12
2016-10-18T08:16:33.339Z,16
2016-10-18T08:17:32.785Z,20
2016-10-18T08:18:32.760Z,20
2016-10-18T08:19:32.857Z,24
2016-10-18T08:20:32.860Z,28
2016-10-18T08:21:32.941Z,36
2016-10-18T08:22:33.016Z,44
2016-10-18T08:23:33.077Z,52
2016-10-18T08:24:33.631Z,60
2016-10-18T08:25:33.723Z,80
2016-10-18T08:26:33.737Z,112
2016-10-18T08:27:33.231Z,136
2016-10-18T08:28:33.873Z,120
2016-10-18T08:29:33.430Z,112
2016-10-18T08:30:33.432Z,128
2016-10-18T08:31:33.463Z,148
2016-10-18T08:32:33.567Z,176
2016-10-18T08:33:33.549Z,200
2016-10-18T08:34:33.630Z,212
2016-10-18T08:35:33.653Z,228
2016-10-18T08:36:33.773Z,276
2016-10-18T08:37:33.852Z,344
2016-10-18T08:38:33.860Z,420
2016-10-18T08:39:33.889Z,496
2016-10-18T08:40:34.507Z,576
2016-10-18T08:41:33.995Z,648
2016-10-18T08:42:34.070Z,712
2016-10-18T08:43:34.111Z,772
2016-10-18T08:44:34.144Z,828
2016-10-18T08:45:34.273Z,896
2016-10-18T08:46:34.354Z,940
2016-10-18T08:47:34.884Z,976
2016-10-18T08:48:34.946Z,1036
2016-10-18T08:49:34.990Z,1084
2016-10-18T08:50:34.520Z,1140
2016-10-18T08:51:34.790Z,1216
2016-10-18T08:52:34.644Z,1300
2016-10-18T08:53:34.692Z,1380
2016-10-18T08:54:34.746Z,1444
2016-10-18T08:55:35.603Z,1508
2016-10-18T08:56:35.594Z,1572
2016-10-18T08:57:35.704Z,1640
2016-10-18T08:58:44.653Z,1692
2016-10-18T08:59:36.652Z,1736
2016-10-18T09:00:36.662Z,1792
2016-10-18T09:01:36.686Z,1856
2016-10-18T09:02:37.599Z,1924
2016-10-18T09:03:45.548Z,1988
2016-10-18T09:04:38.576Z,2052
2016-10-18T09:05:39.535Z,2124
2016-10-18T09:06:39.592Z,2200
2016-10-18T09:07:37.609Z,2276
2016-10-18T09:08:37.664Z,2352
2016-10-18T09:10:07.608Z,2480
2016-10-18T09:11:05.516Z,2576
2016-10-18T09:11:44.512Z,2644
2016-10-18T09:12:40.515Z,2796
2016-10-18T09:14:11.584Z,3420
2016-10-18T09:14:43.513Z,3772
2016-10-18T09:19:51.187Z,6092
2016-10-18T09:20:02.061Z,6288
2016-10-18T09:21:02.123Z,9264
2016-10-18T09:22:02.159Z,13460
2016-10-18T09:23:02.200Z,11412
2016-10-18T09:24:02.243Z,7368
2016-10-18T09:25:02.274Z,4724
2016-10-18T09:26:02.384Z,4304
2016-10-18T09:27:02.367Z,4160
2016-10-18T09:28:02.489Z,3832
2016-10-18T09:29:03.051Z,3684
2016-10-18T09:30:02.585Z,3704
2016-10-18T09:31:02.604Z,3796
2016-10-18T09:32:02.721Z,3928
2016-10-18T09:33:03.222Z,4128
2016-10-18T09:34:03.337Z,4364
2016-10-18T09:35:02.832Z,4760
2016-10-18T09:36:02.875Z,5456
2016-10-18T09:37:02.899Z,5512
2016-10-18T09:38:03.202Z,5648
2016-10-18T09:39:03.011Z,6404
2016-10-18T09:40:03.108Z,7532
2016-10-18T09:41:03.183Z,8712
2016-10-18T09:42:03.208Z,8652
2016-10-18T09:43:03.447Z,9336
2016-10-18T09:44:03.570Z,12140
2016-10-18T09:45:05.664Z,14660
2016-10-18T09:46:03.921Z,12460
2016-10-18T09:47:03.501Z,9080
2016-10-18T09:48:03.498Z,8040
2016-10-18T09:49:04.964Z,8416
2016-10-18T09:50:04.949Z,9584
2016-10-18T09:51:03.907Z,10496
2016-10-18T09:52:04.882Z,11004
2016-10-18T09:53:04.781Z,8872
2016-10-18T09:54:04.820Z,8412
2016-10-18T09:55:05.879Z,7512
2016-10-18T09:56:06.723Z,8164
2016-10-18T09:57:57.034Z,10080
2016-10-18T09:58:10.816Z,9428
2016-10-18T09:59:10.948Z,7868
2016-10-18T10:00:11.847Z,8008
2016-10-18T10:01:11.860Z,7472
2016-10-18T10:03:14.768Z,8340
2016-10-18T10:03:34.734Z,8972
2016-10-18T10:04:30.742Z,11892
2016-10-18T10:05:29.987Z,12104
2016-10-18T10:06:59.832Z,11948
2016-10-18T10:09:46.720Z,15456
2016-10-18T10:11:15.808Z,14440
2016-10-18T10:12:20.751Z,11648
2016-10-18T10:12:44.909Z,11380
2016-10-18T10:14:04.907Z,8696
2016-10-18T10:15:21.842Z,7212
2016-10-18T10:19:06.859Z,7012
2016-10-18T10:19:53.822Z,6912
2016-10-18T10:20:52.953Z,6860
2016-10-18T10:21:53.763Z,6876
2016-10-18T10:29:12.875Z,5820
2016-10-18T10:30:41.736Z,5656
2016-10-18T10:31:59.761Z,5560
2016-10-18T10:32:28.750Z,5496
2016-10-18T10:33:58.784Z,5384
2016-10-18T10:35:41.861Z,5256
2016-10-18T10:36:47.858Z,5188
2016-10-18T10:37:49.835Z,5120
2016-10-18T10:40:21.885Z,4968
2016-10-18T10:41:23.957Z,4904
2016-10-18T10:42:43.888Z,4832
2016-10-18T10:43:22.942Z,4844
2016-10-18T10:44:21.776Z,4796
2016-10-18T10:45:23.895Z,4728
2016-10-18T10:46:22.857Z,4748
2016-10-18T10:47:21.761Z,4660
2016-10-18T10:48:22.962Z,4560
2016-10-18T10:49:20.998Z,4500
2016-10-18T10:50:21.034Z,4500
2016-10-18T10:51:21.088Z,4388
2016-10-18T10:52:21.118Z,4352
2016-10-18T10:53:33.921Z,4352
2016-10-18T10:54:23.107Z,4476
2016-10-18T10:55:23.892Z,4500
2016-10-18T10:56:22.830Z,4560
2016-10-18T10:57:22.090Z,4720
2016-10-18T10:58:24.986Z,4664
2016-10-18T10:59:21.779Z,5204
2016-10-18T11:00:21.808Z,5172
2016-10-18T11:01:23.083Z,5168
2016-10-18T11:02:21.833Z,5868
2016-10-18T11:03:29.747Z,6824
2016-10-18T11:04:22.869Z,7236
2016-10-18T11:05:21.878Z,7540
2016-10-18T11:06:21.782Z,7972
2016-10-18T11:07:21.958Z,8088
2016-10-18T11:08:26.122Z,8384
2016-10-18T11:09:20.911Z,8532
2016-10-18T11:10:21.809Z,9008
2016-10-18T11:11:22.204Z,9128
2016-10-18T11:12:22.916Z,9236
2016-10-18T11:14:39.009Z,9184
2016-10-18T11:15:23.909Z,9140
2016-10-18T11:16:23.813Z,9084
2016-10-18T11:17:23.984Z,9084
2016-10-18T11:18:25.146Z,9132
2016-10-18T11:19:55.771Z,9316
2016-10-18T11:20:24.962Z,9316
2016-10-18T11:21:23.770Z,9384
2016-10-18T11:22:25.903Z,9380
2016-10-18T11:23:22.284Z,9368
2016-10-18T11:24:24.230Z,9416
2016-10-18T11:25:26.377Z,9448
2016-10-18T11:26:26.405Z,9348
2016-10-18T11:36:19.380Z,8816
2016-10-18T11:36:51.529Z,8812
2016-10-18T11:37:50.877Z,8768
2016-10-18T11:38:51.569Z,8812
2016-10-18T11:39:57.825Z,8760
2016-10-18T11:40:50.391Z,8704
2016-10-18T11:41:51.667Z,8672
2016-10-18T11:42:51.483Z,8636
2016-10-18T11:43:50.907Z,8568
2016-10-18T11:44:58.521Z,8452
2016-10-18T11:47:56.969Z,8272
2016-10-18T11:48:44.001Z,8180
2016-10-18T11:49:44.886Z,8116
2016-10-18T11:53:40.777Z,7988
2016-10-18T11:54:47.746Z,7912
2016-10-18T11:56:15.019Z,7876
2016-10-18T11:56:37.857Z,7820
2016-10-18T11:58:23.838Z,7696
2016-10-18T12:00:09.859Z,7684
2016-10-18T12:00:27.799Z,7696
2016-10-18T12:01:56.832Z,7684
2016-10-18T12:04:53.886Z,7708
2016-10-18T12:05:11.813Z,7736
2016-10-18T12:11:07.865Z,7720
2016-10-18T12:12:03.850Z,7772
2016-10-18T12:12:29.282Z,7816
2016-10-18T12:13:29.523Z,7756
2016-10-18T12:14:29.691Z,7428
2016-10-18T12:15:29.755Z,6560
2016-10-18T12:16:30.425Z,5624
2016-10-18T12:17:29.341Z,5628
2016-10-18T12:18:33.760Z,6016
2016-10-18T12:19:30.393Z,6448
2016-10-18T12:20:28.951Z,6872
2016-10-18T12:21:29.248Z,6864
2016-10-18T12:22:29.950Z,6780
2016-10-18T12:23:30.654Z,6308
2016-10-18T12:24:28.646Z,6108
2016-10-18T12:25:28.872Z,5924
2016-10-18T12:26:28.781Z,6008
2016-10-18T12:27:29.414Z,6224
2016-10-18T12:28:30.900Z,5960
2016-10-18T12:29:31.507Z,5952
2016-10-18T12:30:34.726Z,6408
2016-10-18T12:31:30.664Z,6656
2016-10-18T12:32:31.558Z,6628
2016-10-18T12:33:32.659Z,6608
2016-10-18T12:34:37.450Z,7048
2016-10-18T12:35:34.455Z,7148
2016-10-18T12:36:30.732Z,6904
2016-10-18T12:37:36.504Z,7172
2016-10-18T12:38:31.657Z,7272
2016-10-18T12:39:46.576Z,7376
2016-10-18T12:41:41.587Z,7324
2016-10-18T12:42:40.456Z,7292
2016-10-18T12:44:12.483Z,7168
2016-10-18T12:44:41.501Z,7092
2016-10-18T12:45:40.603Z,7192
2016-10-18T12:47:21.686Z,7320
2016-10-18T12:47:51.664Z,7412
2016-10-18T12:48:41.575Z,7540
2016-10-18T12:50:12.409Z,7364
2016-10-18T12:53:02.456Z,7552
2016-10-18T12:54:31.462Z,7468
2016-10-18T12:54:49.478Z,7468
2016-10-18T12:56:18.535Z,7340
2016-10-18T12:58:31.544Z,7084
2016-10-18T12:59:24.529Z,6836
2016-10-18T13:00:46.539Z,7180
2016-10-18T13:04:18.665Z,7236
2016-10-18T13:05:10.468Z,7072
2016-10-18T13:05:49.442Z,7004
2016-10-18T13:17:38.547Z,7020
2016-10-18T13:23:37.509Z,6840
2016-10-18T13:24:50.564Z,6724
2016-10-18T13:25:07.660Z,6856
2016-10-18T13:29:15.564Z,6628
2016-10-18T13:30:06.648Z,6244
2016-10-18T13:31:07.528Z,6476
2016-10-18T13:31:38.590Z,6464
2016-10-18T13:32:47.520Z,6432
2016-10-18T13:34:36.646Z,6304
2016-10-18T13:36:07.607Z,6200
2016-10-18T13:36:37.632Z,6184
2016-10-18T13:38:12.598Z,6116
2016-10-18T13:40:49.641Z,5948
2016-10-18T13:41:49.659Z,5872
2016-10-18T13:43:00.650Z,5864
2016-10-18T13:43:35.688Z,5820
2016-10-18T13:45:09.542Z,5724
2016-10-18T13:45:38.585Z,5660
2016-10-18T13:46:42.712Z,5596
2016-10-18T13:47:38.724Z,5556
2016-10-18T13:48:38.772Z,5524
2016-10-18T13:49:38.807Z,5428
2016-10-18T13:50:44.831Z,5264
2016-10-18T13:51:35.822Z,5220
2016-10-18T13:52:38.650Z,5160
2016-10-18T13:53:38.695Z,5188
2016-10-18T13:54:36.496Z,5072
2016-10-18T13:55:38.607Z,4964
2016-10-18T13:56:50.528Z,4960
2016-10-18T13:57:50.595Z,5272
2016-10-18T13:58:49.516Z,5236
2016-10-18T13:59:38.636Z,5324
2016-10-18T14:01:10.590Z,5284
2016-10-18T14:01:38.676Z,5252
2016-10-18T14:02:37.639Z,5288
2016-10-18T14:04:53.666Z,5196
2016-10-18T14:05:58.630Z,5208
2016-10-18T14:06:59.847Z,5084
2016-10-18T14:07:59.666Z,5128
2016-10-18T14:08:55.669Z,5052
2016-10-18T14:09:55.769Z,5004
2016-10-18T14:11:04.696Z,4880
2016-10-18T14:11:55.878Z,4656
2016-10-18T14:13:18.566Z,4500
2016-10-18T14:14:13.587Z,4720
2016-10-18T14:14:59.736Z,4920
2016-10-18T14:17:38.665Z,4876
2016-10-18T14:18:32.710Z,4848
2016-10-18T14:19:33.518Z,4824
2016-10-18T14:21:02.561Z,4548
2016-10-18T14:22:31.293Z,4748
2016-10-18T14:23:31.061Z,4796
2016-10-18T14:24:30.347Z,4776
2016-10-18T14:25:31.276Z,4760
2016-10-18T14:26:31.670Z,4720
2016-10-18T14:27:31.698Z,4772
2016-10-18T14:28:30.634Z,4740
2016-10-18T14:29:31.575Z,4720
2016-10-18T14:30:31.294Z,4724
2016-10-18T14:31:31.306Z,4712
2016-10-18T14:32:30.385Z,4704
2016-10-18T14:33:30.412Z,4680
2016-10-18T14:34:31.551Z,4660
2016-10-18T14:35:31.049Z,4624
2016-10-18T14:36:31.183Z,4608
2016-10-18T14:37:31.731Z,4572
2016-10-18T14:38:31.255Z,4548
2016-10-18T14:39:31.999Z,4528
2016-10-18T14:40:31.363Z,4512
2016-10-18T14:41:31.875Z,4500
2016-10-18T14:42:31.736Z,4476
2016-10-18T14:43:32.165Z,4460
2016-10-18T14:44:31.352Z,4440
2016-10-18T14:45:31.847Z,4416
2016-10-18T14:46:32.139Z,4416
2016-10-18T14:47:32.529Z,4416
2016-10-18T14:48:31.892Z,4404
2016-10-18T14:49:32.169Z,4400
2016-10-18T14:50:32.016Z,4388
2016-10-18T14:51:32.785Z,4376
2016-10-18T14:52:32.804Z,4356
2016-10-18T14:53:32.735Z,4336
2016-10-18T14:54:34.228Z,4324
2016-10-18T14:55:33.115Z,4312
2016-10-18T14:56:33.492Z,4288
2016-10-18T14:57:33.607Z,4280
2016-10-18T14:58:33.603Z,4284
2016-10-18T15:19:15.338Z,3992
2016-10-18T15:19:33.308Z,3988
2016-10-18T15:20:33.373Z,3992
2016-10-18T15:21:33.489Z,3992
2016-10-18T15:22:33.540Z,4008
2016-10-18T15:23:33.604Z,4020
2016-10-18T15:24:33.613Z,4016
2016-10-18T15:25:34.189Z,4016
2016-10-18T15:26:34.812Z,3936
2016-10-18T15:27:33.829Z,3944
2016-10-18T15:28:34.387Z,3964
2016-10-18T15:29:33.900Z,3944
2016-10-18T15:30:34.091Z,3916
2016-10-18T15:31:34.247Z,3912
2016-10-18T15:32:34.100Z,3972
2016-10-18T15:33:34.189Z,4020
2016-10-18T15:34:34.308Z,4076
2016-10-18T15:35:34.310Z,4140
2016-10-18T15:36:34.330Z,4160
2016-10-18T15:37:34.963Z,4232
2016-10-18T15:38:34.562Z,4240
2016-10-18T15:39:35.155Z,4208
2016-10-18T15:40:34.605Z,4200
2016-10-18T15:41:34.657Z,4260
2016-10-18T15:42:34.701Z,4328